Grimsby, Canada
Current Conditions -  °F | °C
As of 12:00 PM on Thursday 30 Oct 2014 (Local Time) from CYHM Reporting Station
Broken Clouds Broken Clouds  
Wind Chill: 42°   Ceiling: 3300
Heat Index: 46°   Visibility: 15mi
Dew Point: 34°   Wind: 9mph
Humidity: 62%   Direction: 290°WNW
Pressure: 30.08"   Gusts: NA
Location:  43.2°N, 79.58°W
Report Text: CYHM 301600Z 29008KT 240V320 15SM FEW025 BKN033 08/01 A3008 RMK CU2SC4 SLP193
Loading
Personal Weather Stations






























Interactive Weather Map
Tropical Storm Tracking
New forecast layout! Learn more

10-Day Weather Forecast

Advertisements
Track Severe Weather on mobile